Time;durP1;ratioP1;P1;durP2;ratioP2;P2;SDS_P1;SDS_P2;PMS_P1;PMS_P2;Temp;Humidity;BMP_temperature;BMP_pressure;BME280_temperature;BME280_humidity;BME280_pressure;Samples;Min_cycle;Max_cycle;Signal;HPM_P1;HPM_P2
2023/09/19 00:00:36;;;;;;;;;;;;;;;27.72;38.13;101133.59;5075672;28;1040;-32
2023/09/19 00:03:02;;;;;;;;;;;;;;;27.69;38.23;101131.25;5071016;28;1914;-31
2023/09/19 00:05:28;;;;;;;;;;;;;;;27.81;38.02;101127.09;5069389;28;1135;-30
2023/09/19 00:07:54;;;;;;;;;;;;;;;27.71;37.75;101129.22;5079384;28;1123;-32
2023/09/19 00:10:21;;;;;;;;;;;;;;;27.76;38.11;101126.78;5079387;28;1094;-33
2023/09/19 00:12:47;;;;;;;;;;;;;;;27.60;38.44;101130.41;5074478;28;1143;-30
2023/09/19 00:15:12;;;;;;;;;;;;;;;27.66;38.48;101126.16;5059957;28;1118;-30
2023/09/19 00:17:40;;;;;;;;;;;;;;;27.49;38.79;101131.66;5077021;28;1118;-31
2023/09/19 00:20:12;;;;;;;;;;;;;;;27.67;38.06;101125.13;5079183;28;1233;-30
2023/09/19 00:22:43;;;;;;;;;;;;;;;27.51;38.50;101116.94;5074183;28;1964;-32
2023/09/19 00:25:12;;;;;;;;;;;;;;;27.66;37.82;101123.47;5073054;28;1455;-30
2023/09/19 00:27:42;;;;;;;;;;;;;;;27.77;38.36;101111.44;5065973;28;1411;-30
2023/09/19 00:30:12;;;;;;;;;;;;;;;27.84;37.14;101113.22;5079068;28;1070;-31
2023/09/19 00:32:38;;;;;;;;;;;;;;;27.86;38.24;101115.78;5066202;28;1062;-31
2023/09/19 00:35:04;;;;;;;;;;;;;;;27.84;37.76;101109.69;5061129;28;1313;-29
2023/09/19 00:37:30;;;;;;;;;;;;;;;27.89;38.09;101109.16;5078873;28;1120;-29
2023/09/19 00:39:55;;;;;;;;;;;;;;;27.91;37.72;101107.94;5078926;28;1110;-33
2023/09/19 00:42:21;;;;;;;;;;;;;;;27.93;37.55;101107.75;5079185;28;1905;-32
2023/09/19 00:44:47;;;;;;;;;;;;;;;28.04;37.86;101114.63;5047479;28;1134;-29
2023/09/19 00:47:17;;;;;;;;;;;;;;;27.93;37.95;101107.75;5071504;28;1051;-32
2023/09/19 00:49:49;;;;;;;;;;;;;;;27.94;37.33;101109.47;5062685;28;908;-34
2023/09/19 00:52:15;;;;;;;;;;;;;;;27.91;38.04;101115.22;5061359;28;1010;-29
2023/09/19 00:54:40;;;;;;;;;;;;;;;27.92;38.18;101112.34;5059976;28;1173;-31
2023/09/19 00:57:07;;;;;;;;;;;;;;;27.90;37.66;101105.41;5078964;28;1098;-30
2023/09/19 00:59:35;;;;;;;;;;;;;;;27.77;37.81;101108.72;5078779;28;1142;-34
2023/09/19 01:02:02;;;;;;;;;;;;;;;27.79;37.80;101106.69;5059589;28;1972;-31
2023/09/19 01:04:27;;;;;;;;;;;;;;;27.78;38.12;101107.72;5043564;28;1288;-29
2023/09/19 01:06:53;;;;;;;;;;;;;;;27.62;38.43;101112.16;5070100;28;1086;-33
2023/09/19 01:09:19;;;;;;;;;;;;;;;27.62;38.23;101104.06;5073480;28;1121;-30
2023/09/19 01:11:46;;;;;;;;;;;;;;;27.57;37.86;101120.81;5078660;28;1099;-32
2023/09/19 01:14:11;;;;;;;;;;;;;;;27.68;37.79;101110.59;5077955;28;888;-32
2023/09/19 01:16:42;;;;;;;;;;;;;;;27.74;37.48;101108.06;5078018;28;1071;-31
2023/09/19 01:19:20;;;;;;;;;;;;;;;27.60;38.02;101108.78;5044001;28;1048;-29
2023/09/19 01:22:06;;;;;;;;;;;;;;;27.66;37.87;101099.13;5078236;28;1979;-29
2023/09/19 01:24:36;;;;;;;;;;;;;;;27.54;38.16;101101.41;5060098;28;1115;-31
2023/09/19 01:27:10;;;;;;;;;;;;;;;27.53;38.32;101105.13;5060437;28;1070;-32
2023/09/19 01:29:39;;;;;;;;;;;;;;;27.51;38.05;101100.72;5078248;28;1117;-29
2023/09/19 01:32:05;;;;;;;;;;;;;;;27.64;37.90;101093.91;5077658;28;1185;-32
2023/09/19 01:34:50;;;;;;;;;;;;;;;27.67;37.81;101093.56;5077945;28;1074;-33
2023/09/19 01:37:19;;;;;;;;;;;;;;;27.59;37.82;101099.84;5069441;28;1063;-31
2023/09/19 01:39:48;;;;;;;;;;;;;;;27.52;38.42;101101.56;5077641;28;996;-30
2023/09/19 01:42:23;;;;;;;;;;;;;;;27.51;37.94;101098.03;5077308;28;1969;-33
2023/09/19 01:44:52;;;;;;;;;;;;;;;27.37;38.18;101099.63;5043508;28;1261;-31
2023/09/19 01:47:24;;;;;;;;;;;;;;;27.33;38.38;101102.84;5042733;28;1067;-30
2023/09/19 01:50:08;;;;;;;;;;;;;;;27.31;38.68;101105.72;5077764;28;1075;-35
2023/09/19 01:52:36;;;;;;;;;;;;;;;27.31;38.56;101103.00;5077713;28;1154;-33
2023/09/19 01:55:09;;;;;;;;;;;;;;;27.36;38.09;101103.34;5059192;28;1197;-29
2023/09/19 01:57:35;;;;;;;;;;;;;;;27.36;38.18;101100.63;5059293;28;1130;-32
2023/09/19 02:00:11;;;;;;;;;;;;;;;27.38;38.17;101112.09;5059182;28;1162;-30
2023/09/19 02:02:42;;;;;;;;;;;;;;;27.27;38.18;101109.81;5054324;28;1902;-31
2023/09/19 02:05:07;;;;;;;;;;;;;;;27.23;38.48;101108.44;5068818;28;1014;-30
2023/09/19 02:07:33;;;;;;;;;;;;;;;27.29;38.22;101099.66;5072546;28;1178;-30
2023/09/19 02:10:05;;;;;;;;;;;;;;;27.38;37.83;101112.09;5077262;28;1205;-31
2023/09/19 02:12:30;;;;;;;;;;;;;;;27.39;37.58;101102.97;5076703;28;1075;-29
2023/09/19 02:14:57;;;;;;;;;;;;;;;27.45;37.37;101101.44;5059440;28;1139;-30
2023/09/19 02:17:25;;;;;;;;;;;;;;;27.40;37.71;101103.81;5076747;28;1138;-32
2023/09/19 02:19:55;;;;;;;;;;;;;;;27.41;37.88;101100.09;5077057;28;1430;-33
2023/09/19 02:22:22;;;;;;;;;;;;;;;27.50;37.52;101098.19;5076546;28;1901;-29
2023/09/19 02:24:48;;;;;;;;;;;;;;;27.55;37.24;101106.63;5076786;28;1186;-31
2023/09/19 02:27:15;;;;;;;;;;;;;;;27.48;37.80;101098.38;5063206;28;1101;-31
2023/09/19 02:29:41;;;;;;;;;;;;;;;27.45;38.06;101097.88;5076619;28;1102;-31
2023/09/19 02:32:09;;;;;;;;;;;;;;;27.43;38.25;101100.78;5045279;28;1111;-29
2023/09/19 02:34:36;;;;;;;;;;;;;;;27.42;38.06;101103.66;5076999;28;1129;-30
2023/09/19 02:37:10;;;;;;;;;;;;;;;27.42;37.64;101092.84;5076452;28;1153;-34
2023/09/19 02:39:36;;;;;;;;;;;;;;;27.32;38.29;101091.22;5058329;28;1146;-31
2023/09/19 02:42:03;;;;;;;;;;;;;;;27.29;38.64;101096.13;5076857;28;1906;-33
2023/09/19 02:44:29;;;;;;;;;;;;;;;27.29;38.52;101093.41;5077022;28;1221;-31
2023/09/19 02:46:57;;;;;;;;;;;;;;;27.41;37.87;101092.00;5058462;28;1011;-32
2023/09/19 02:49:23;;;;;;;;;;;;;;;27.42;37.96;101090.16;5076376;28;1105;-30
2023/09/19 02:51:48;;;;;;;;;;;;;;;27.39;37.61;101091.34;5076587;28;1146;-36
2023/09/19 02:54:15;;;;;;;;;;;;;;;27.41;37.62;101085.78;5076396;28;991;-31
2023/09/19 02:56:41;;;;;;;;;;;;;;;27.42;37.23;101085.59;5076695;28;1229;-31
2023/09/19 02:59:07;;;;;;;;;;;;;;;27.37;37.72;101079.88;5076306;28;1070;-29
2023/09/19 03:01:33;;;;;;;;;;;;;;;27.30;37.86;101085.13;5075822;28;1905;-29
2023/09/19 03:03:59;;;;;;;;;;;;;;;27.25;38.58;101079.41;5058569;28;1168;-32
2023/09/19 03:06:25;;;;;;;;;;;;;;;27.22;38.77;101080.63;5058285;28;2536;-30
2023/09/19 03:08:51;;;;;;;;;;;;;;;27.16;38.72;101083.19;5075896;28;1070;-29
2023/09/19 03:11:22;;;;;;;;;;;;;;;27.26;38.13;101076.53;5052871;28;1494;-30
2023/09/19 03:13:52;;;;;;;;;;;;;;;27.33;37.99;101083.94;5049888;28;1130;-30
2023/09/19 03:16:21;;;;;;;;;;;;;;;27.30;38.39;101085.13;5054074;28;1254;-30
2023/09/19 03:18:48;;;;;;;;;;;;;;;27.21;38.75;101097.81;5056938;28;1155;-30
2023/09/19 03:21:15;;;;;;;;;;;;;;;27.11;37.77;101087.22;5047843;28;2421;-30
2023/09/19 03:23:41;;;;;;;;;;;;;;;26.87;37.25;101098.94;5057583;28;2108;-32
2023/09/19 03:26:06;;;;;;;;;;;;;;;26.65;36.44;101094.09;5057563;28;2365;-29
2023/09/19 03:28:33;;;;;;;;;;;;;;;26.43;37.52;101092.94;5057098;28;2335;-32
2023/09/19 03:31:02;;;;;;;;;;;;;;;25.85;38.23;101096.44;5057143;28;2357;-33
2023/09/19 03:33:31;;;;;;;;;;;;;;;25.89;37.47;101094.25;5057862;28;1850;-31
2023/09/19 03:35:59;;;;;;;;;;;;;;;25.05;38.63;101090.41;5057439;28;2220;-33
2023/09/19 03:38:30;;;;;;;;;;;;;;;24.43;39.96;101086.81;5057370;28;1214;-30
2023/09/19 03:40:56;;;;;;;;;;;;;;;23.93;40.46;101084.53;5079366;28;1902;-33
2023/09/19 03:43:21;;;;;;;;;;;;;;;24.49;39.58;101093.41;5061828;28;1252;-32
2023/09/19 03:45:47;;;;;;;;;;;;;;;25.28;38.11;101092.53;5061295;28;1331;-35
2023/09/19 03:48:13;;;;;;;;;;;;;;;25.75;37.67;101093.88;5059636;28;1348;-34
2023/09/19 03:50:39;;;;;;;;;;;;;;;26.04;37.30;101097.13;5061178;28;1639;-35
2023/09/19 03:53:07;;;;;;;;;;;;;;;25.96;36.72;101095.25;5061633;28;1220;-31
2023/09/19 03:55:35;;;;;;;;;;;;;;;25.73;37.90;101090.50;5061169;28;1031;-32
2023/09/19 03:58:03;;;;;;;;;;;;;;;25.97;38.02;101093.41;5079666;28;1149;-29
2023/09/19 04:00:29;;;;;;;;;;;;;;;25.95;37.35;101095.44;5060706;28;1441;-34
2023/09/19 04:02:56;;;;;;;;;;;;;;;25.84;37.88;101093.91;5059996;28;1905;-31
2023/09/19 04:05:24;;;;;;;;;;;;;;;26.02;37.88;101097.31;5059914;28;1879;-37
2023/09/19 04:07:50;;;;;;;;;;;;;;;26.17;37.74;101088.53;5059036;28;1287;-36
2023/09/19 04:10:16;;;;;;;;;;;;;;;26.23;37.65;101089.69;5079392;28;1099;-33
2023/09/19 04:12:50;;;;;;;;;;;;;;;26.38;37.36;101079.13;5079163;28;1134;-35
2023/09/19 04:15:16;;;;;;;;;;;;;;;26.21;36.99;101079.09;5078713;28;867;-32
2023/09/19 04:17:42;;;;;;;;;;;;;;;26.22;37.66;101067.31;5060824;28;1110;-33
2023/09/19 04:20:08;;;;;;;;;;;;;;;26.31;37.48;101078.09;5060894;28;1248;-33
2023/09/19 04:22:33;;;;;;;;;;;;;;;26.00;37.43;101072.34;5060576;28;1914;-33
2023/09/19 04:25:00;;;;;;;;;;;;;;;25.98;37.71;101068.97;5061018;28;1298;-30
2023/09/19 04:27:25;;;;;;;;;;;;;;;26.08;37.17;101076.06;5060563;28;1138;-34
2023/09/19 04:29:53;;;;;;;;;;;;;;;26.08;37.80;101078.75;5061259;28;1087;-34
2023/09/19 04:32:18;;;;;;;;;;;;;;;26.36;37.60;101081.16;5079186;28;1103;-35
2023/09/19 04:34:44;;;;;;;;;;;;;;;26.48;36.95;101087.88;5078775;28;1149;-33
2023/09/19 04:37:10;;;;;;;;;;;;;;;26.45;37.13;101085.53;5067409;28;1836;-33
2023/09/19 04:39:36;;;;;;;;;;;;;;;26.38;37.53;101082.66;5078554;28;903;-33
2023/09/19 04:42:03;;;;;;;;;;;;;;;26.55;37.21;101087.19;5078333;28;1985;-34
2023/09/19 04:44:28;;;;;;;;;;;;;;;26.40;37.86;101088.72;5078286;28;1007;-36
2023/09/19 04:46:54;;;;;;;;;;;;;;;26.49;38.06;101086.84;5078694;28;1017;-34
2023/09/19 04:49:19;;;;;;;;;;;;;;;26.61;37.66;101086.53;5078717;28;1034;-34
2023/09/19 04:51:46;;;;;;;;;;;;;;;26.79;37.38;101083.63;5076469;28;1022;-30
2023/09/19 04:54:13;;;;;;;;;;;;;;;26.81;37.47;101080.75;5079109;28;1047;-31
2023/09/19 04:56:40;;;;;;;;;;;;;;;26.63;37.47;101070.97;5078730;28;1122;-32
2023/09/19 04:59:06;;;;;;;;;;;;;;;26.41;37.67;101076.91;5078133;28;1114;-33
2023/09/19 05:01:31;;;;;;;;;;;;;;;26.52;38.32;101073.06;5078014;28;1918;-29
2023/09/19 05:03:57;;;;;;;;;;;;;;;26.37;38.86;101059.41;5077777;28;1038;-33
2023/09/19 05:06:23;;;;;;;;;;;;;;;26.50;40.84;101071.50;5077800;28;2389;-35
2023/09/19 05:08:52;;;;;;;;;;;;;;;26.57;38.19;101067.13;5078924;28;1146;-35
2023/09/19 05:11:18;;;;;;;;;;;;;;;26.57;37.83;101069.81;5078082;28;1526;-29
2023/09/19 05:13:44;;;;;;;;;;;;;;;26.43;38.19;101063.25;5077726;28;1031;-34
2023/09/19 05:16:10;;;;;;;;;;;;;;;26.32;38.95;101058.19;5072263;28;962;-31
2023/09/19 05:18:36;;;;;;;;;;;;;;;26.53;38.60;101063.94;5071095;28;1221;-31
2023/09/19 05:21:04;;;;;;;;;;;;;;;26.64;38.30;101070.81;5071583;28;1910;-29
2023/09/19 05:23:31;;;;;;;;;;;;;;;26.61;38.29;101068.47;5070132;28;1028;-36
2023/09/19 05:25:58;;;;;;;;;;;;;;;26.47;38.87;101067.31;5073591;28;1202;-32
2023/09/19 05:28:23;;;;;;;;;;;;;;;26.65;38.00;101061.72;5077901;28;1134;-29
2023/09/19 05:30:49;;;;;;;;;;;;;;;26.69;38.48;101064.06;5078016;28;1193;-32
2023/09/19 05:33:15;;;;;;;;;;;;;;;26.67;38.32;101061.53;5064771;28;1509;-31
2023/09/19 05:35:41;;;;;;;;;;;;;;;26.61;38.61;101062.25;5063903;28;1174;-34
2023/09/19 05:38:08;;;;;;;;;;;;;;;26.78;38.03;101066.56;5077626;28;1038;-31
2023/09/19 05:40:34;;;;;;;;;;;;;;;26.83;38.36;101065.19;5064319;28;1098;-35
2023/09/19 05:43:00;;;;;;;;;;;;;;;26.89;38.19;101065.34;5064321;28;1991;-34
2023/09/19 05:45:27;;;;;;;;;;;;;;;26.92;37.80;101064.16;5077341;28;1020;-33
2023/09/19 05:47:55;;;;;;;;;;;;;;;26.85;38.57;101060.47;5077586;28;1051;-32
2023/09/19 05:50:21;;;;;;;;;;;;;;;26.89;38.10;101061.81;5059628;28;995;-34
2023/09/19 05:52:52;;;;;;;;;;;;;;;26.99;38.13;101065.13;5064020;28;1386;-32
2023/09/19 05:55:18;;;;;;;;;;;;;;;26.90;38.33;101061.66;5057450;28;1110;-33
2023/09/19 05:57:43;;;;;;;;;;;;;;;26.83;38.70;101062.50;5084589;28;1059;-32
2023/09/19 06:00:10;;;;;;;;;;;;;;;26.82;38.47;101061.66;5039343;28;1414;-33
2023/09/19 06:02:37;;;;;;;;;;;;;;;26.92;38.15;101061.47;5071100;28;1902;-32
2023/09/19 06:05:06;;;;;;;;;;;;;;;27.24;38.35;101059.66;5076942;28;1214;-32
2023/09/19 06:07:36;;;;;;;;;;;;;;;27.50;36.90;101068.47;5077024;28;1073;-34
2023/09/19 06:10:05;;;;;;;;;;;;;;;26.78;38.62;101073.81;5077847;28;1107;-32
2023/09/19 06:12:33;;;;;;;;;;;;;;;26.92;38.38;101080.38;5075019;28;1210;-30
2023/09/19 06:14:59;;;;;;;;;;;;;;;27.05;39.59;101070.88;5065993;28;1090;-30
2023/09/19 06:17:26;;;;;;;;;;;;;;;27.52;37.48;101077.25;5077084;28;1181;-29
2023/09/19 06:19:52;;;;;;;;;;;;;;;27.69;36.95;101074.50;5067748;28;1043;-28
2023/09/19 06:22:20;;;;;;;;;;;;;;;27.92;36.58;101081.75;5056919;28;1898;-31
2023/09/19 06:24:46;;;;;;;;;;;;;;;27.91;36.86;101077.38;5057338;28;1027;-32
2023/09/19 06:27:13;;;;;;;;;;;;;;;28.03;36.40;101084.03;5062919;28;1026;-28
2023/09/19 06:29:38;;;;;;;;;;;;;;;27.99;36.21;101083.53;5067965;28;1043;-31
2023/09/19 06:32:08;;;;;;;;;;;;;;;27.98;36.65;101084.56;5069948;28;1060;-32
2023/09/19 06:34:34;;;;;;;;;;;;;;;28.13;36.36;101088.38;5065607;28;1068;-31
2023/09/19 06:36:59;;;;;;;;;;;;;;;28.28;36.09;101085.72;5076620;28;1020;-32
2023/09/19 06:39:25;;;;;;;;;;;;;;;28.26;36.25;101083.16;5076198;28;1185;-30
2023/09/19 06:41:53;;;;;;;;;;;;;;;28.36;36.15;101083.78;5061697;28;1902;-33
2023/09/19 06:44:20;;;;;;;;;;;;;;;28.27;36.17;101082.16;5065610;28;1066;-32
2023/09/19 06:46:49;;;;;;;;;;;;;;;28.31;35.99;101088.88;5074098;28;1067;-31
2023/09/19 06:49:15;;;;;;;;;;;;;;;28.17;36.28;101084.25;5056588;28;1143;-33
2023/09/19 06:51:43;;;;;;;;;;;;;;;28.30;36.28;101076.38;5066807;28;1041;-32
2023/09/19 06:54:08;;;;;;;;;;;;;;;28.35;36.19;101079.41;5076534;28;1119;-31
2023/09/19 06:56:34;;;;;;;;;;;;;;;28.32;36.01;101074.34;5059971;28;1149;-29
2023/09/19 06:59:00;;;;;;;;;;;;;;;28.23;35.95;101086.22;5056213;28;1059;-34
2023/09/19 07:01:26;;;;;;;;;;;;;;;28.39;36.38;101081.75;5069046;28;1914;-32
2023/09/19 07:03:53;;;;;;;;;;;;;;;28.34;35.80;101071.47;5067217;28;848;-30
2023/09/19 07:06:18;;;;;;;;;;;;;;;28.43;35.76;101077.63;5075879;28;1023;-33
2023/09/19 07:08:45;;;;;;;;;;;;;;;28.78;35.58;101074.41;5077050;28;1105;-31
2023/09/19 07:11:12;;;;;;;;;;;;;;;28.61;36.05;101082.72;5076182;28;1092;-34
2023/09/19 07:13:38;;;;;;;;;;;;;;;28.83;35.63;101082.78;5075664;28;1063;-33
2023/09/19 07:16:03;;;;;;;;;;;;;;;28.57;34.71;101084.94;5075252;28;1154;-33
2023/09/19 07:18:29;;;;;;;;;;;;;;;28.72;36.01;101084.97;5076300;28;1046;-29
2023/09/19 07:20:58;;;;;;;;;;;;;;;28.80;35.82;101086.72;5059521;28;1926;-34
2023/09/19 07:23:25;;;;;;;;;;;;;;;29.01;35.79;101087.03;5067954;28;1055;-32
2023/09/19 07:25:51;;;;;;;;;;;;;;;29.03;35.54;101083.09;5076247;28;1106;-32
2023/09/19 07:28:17;;;;;;;;;;;;;;;28.96;36.07;101084.88;5075645;28;856;-30
2023/09/19 07:30:42;;;;;;;;;;;;;;;29.01;35.87;101078.91;5076229;28;1147;-32
2023/09/19 07:33:11;;;;;;;;;;;;;;;28.69;36.40;101090.75;5064796;28;1197;-31
2023/09/19 07:35:39;;;;;;;;;;;;;;;28.79;36.80;101092.34;5074428;28;1118;-29
2023/09/19 07:38:05;;;;;;;;;;;;;;;28.84;36.67;101092.63;5064120;28;1082;-31
2023/09/19 07:40:30;;;;;;;;;;;;;;;28.92;36.20;101088.97;5069371;28;1020;-31
2023/09/19 07:42:56;;;;;;;;;;;;;;;28.95;36.14;101083.16;5055816;28;1902;-29
2023/09/19 07:45:22;;;;;;;;;;;;;;;29.03;35.99;101080.41;5055721;28;1141;-35
2023/09/19 07:47:48;;;;;;;;;;;;;;;29.35;35.65;101077.44;5055938;28;996;-32
2023/09/19 07:50:15;;;;;;;;;;;;;;;29.21;35.47;101079.19;5061132;28;1111;-32
2023/09/19 07:52:41;;;;;;;;;;;;;;;29.41;35.65;101068.56;5076261;28;912;-32
2023/09/19 07:55:11;;;;;;;;;;;;;;;29.49;35.29;101073.03;5075808;28;1041;-33
2023/09/19 07:57:37;;;;;;;;;;;;;;;28.66;34.07;101072.16;5075869;28;1202;-34
2023/09/19 08:00:04;;;;;;;;;;;;;;;29.05;35.47;101067.50;5069513;28;1047;-29
2023/09/19 08:02:40;;;;;;;;;;;;;;;28.54;36.66;101060.97;5069708;28;1910;-31
2023/09/19 08:05:11;;;;;;;;;;;;;;;28.92;36.37;101068.16;5067619;28;873;-35
2023/09/19 08:07:40;;;;;;;;;;;;;;;29.07;35.77;101065.47;5070780;28;1051;-33
2023/09/19 08:10:15;;;;;;;;;;;;;;;29.32;35.12;101067.00;5075675;28;1137;-33
2023/09/19 08:12:48;;;;;;;;;;;;;;;28.99;36.12;101067.41;5075254;28;1047;-32
2023/09/19 08:15:17;;;;;;;;;;;;;;;29.24;35.22;101067.97;5075408;28;1019;-29
2023/09/19 08:17:42;;;;;;;;;;;;;;;29.22;35.58;101067.31;5057595;28;1038;-32
2023/09/19 08:20:15;;;;;;;;;;;;;;;28.89;36.06;101056.84;5048628;28;1114;-30
2023/09/19 08:22:47;;;;;;;;;;;;;;;28.67;36.67;101051.34;5075900;28;1981;-32
2023/09/19 08:25:13;;;;;;;;;;;;;;;28.90;36.08;101053.94;5075761;28;1038;-31
2023/09/19 08:27:39;;;;;;;;;;;;;;;29.05;35.68;101053.13;5078243;28;1143;-33
2023/09/19 08:30:06;;;;;;;;;;;;;;;29.06;35.90;101055.63;5078024;28;1050;-33
2023/09/19 08:32:31;;;;;;;;;;;;;;;29.19;35.81;101044.16;5057623;28;1028;-34
2023/09/19 08:34:57;;;;;;;;;;;;;;;29.00;35.88;101050.13;5071476;28;1074;-34
2023/09/19 08:37:22;;;;;;;;;;;;;;;28.83;35.97;101037.63;5066042;28;1195;-34
2023/09/19 08:39:48;;;;;;;;;;;;;;;28.84;36.14;101052.81;5077987;28;1055;-34
2023/09/19 08:42:15;;;;;;;;;;;;;;;28.73;36.45;101037.91;5065053;28;1913;-32
2023/09/19 08:44:40;;;;;;;;;;;;;;;28.57;36.48;101035.38;5078547;28;1053;-30
2023/09/19 08:47:11;;;;;;;;;;;;;;;28.52;36.94;101037.81;5066424;28;1063;-31
2023/09/19 08:49:43;;;;;;;;;;;;;;;28.71;36.58;101037.25;5072311;28;1043;-34
2023/09/19 08:52:41;;;;;;;;;;;;;;;28.85;36.17;101034.72;5077947;28;1138;-30
2023/09/19 08:55:08;;;;;;;;;;;;;;;29.23;35.34;101031.03;5031062;28;1251;-33
2023/09/19 08:57:37;;;;;;;;;;;;;;;29.25;35.10;101031.69;5060740;28;1087;-30
2023/09/19 09:00:09;;;;;;;;;;;;;;;29.51;34.70;101018.63;5071003;28;1078;-34
2023/09/19 09:02:35;;;;;;;;;;;;;;;29.60;34.57;101013.94;5055833;28;1991;-35
2023/09/19 09:05:01;;;;;;;;;;;;;;;29.65;34.28;101019.63;5058040;28;2558;-34
2023/09/19 09:07:28;;;;;;;;;;;;;;;29.58;34.27;101016.81;5078511;28;951;-35
2023/09/19 09:09:53;;;;;;;;;;;;;;;29.56;34.30;101010.75;5077850;28;1100;-32
2023/09/19 09:12:20;;;;;;;;;;;;;;;29.65;34.06;101004.19;5059834;28;1058;-31
2023/09/19 09:14:49;;;;;;;;;;;;;;;29.86;33.43;100999.81;5060497;28;1103;-30
2023/09/19 09:17:16;;;;;;;;;;;;;;;29.88;33.30;100999.59;5078143;28;1066;-34
2023/09/19 09:19:42;;;;;;;;;;;;;;;26.64;37.63;100992.56;5077911;28;1104;-29
2023/09/19 09:22:08;;;;;;;;;;;;;;;25.16;42.57;100993.22;5077787;28;1910;-31
2023/09/19 09:24:36;;;;;;;;;;;;;;;24.85;44.12;100990.22;5070518;28;1039;-33
2023/09/19 09:27:04;;;;;;;;;;;;;;;24.42;45.70;100991.00;5072440;28;1070;-32
2023/09/19 09:29:56;;;;;;;;;;;;;;;24.16;46.34;100992.69;5077945;28;883;-33
2023/09/19 09:32:24;;;;;;;;;;;;;;;23.92;47.43;100991.47;5073594;28;1726;-36
2023/09/19 09:34:51;;;;;;;;;;;;;;;25.41;44.85;100995.13;5077729;28;1138;-32
2023/09/19 09:37:20;;;;;;;;;;;;;;;26.71;39.90;100987.31;5058524;28;1121;-34
2023/09/19 09:39:51;;;;;;;;;;;;;;;24.46;46.04;100987.84;5058012;28;1028;-33
2023/09/19 09:42:35;;;;;;;;;;;;;;;23.62;48.35;100981.97;5065113;28;1906;-31
2023/09/19 09:45:28;;;;;;;;;;;;;;;23.87;47.99;100977.69;5077798;28;1059;-30
2023/09/19 09:47:57;;;;;;;;;;;;;;;23.60;48.62;100976.75;5077914;28;1186;-33
2023/09/19 09:50:50;;;;;;;;;;;;;;;23.74;48.30;100983.41;5077509;28;1085;-35
2023/09/19 09:53:25;;;;;;;;;;;;;;;26.19;42.64;100975.97;5073565;28;1086;-35
2023/09/19 09:55:57;;;;;;;;;;;;;;;25.09;44.05;100976.03;5057614;28;1066;-31
2023/09/19 09:58:28;;;;;;;;;;;;;;;24.08;45.71;100977.31;5057623;28;1184;-33
2023/09/19 10:00:57;;;;;;;;;;;;;;;23.74;47.35;100970.00;5057860;28;1459;-33
2023/09/19 10:03:34;;;;;;;;;;;;;;;24.29;48.34;100969.94;5064017;28;1986;-33
2023/09/19 10:06:08;;;;;;;;;;;;;;;26.68;40.63;100973.31;5062179;28;892;-31
2023/09/19 10:08:35;;;;;;;;;;;;;;;24.23;46.98;100970.53;5057783;28;1051;-32
2023/09/19 10:11:06;;;;;;;;;;;;;;;23.54;48.62;100967.47;5073320;28;1426;-31
2023/09/19 10:13:33;;;;;;;;;;;;;;;23.44;48.85;100967.53;5050113;28;1062;-33
2023/09/19 10:15:58;;;;;;;;;;;;;;;23.18;49.60;100964.72;5074127;28;1111;-37
2023/09/19 10:18:24;;;;;;;;;;;;;;;23.60;51.22;100964.19;5077087;28;858;-31
2023/09/19 10:20:50;;;;;;;;;;;;;;;26.39;41.35;100968.34;5073668;28;1059;-33
2023/09/19 10:23:27;;;;;;;;;;;;;;;23.27;46.18;100957.63;5066502;28;1910;-34
2023/09/19 10:25:52;;;;;;;;;;;;;;;21.70;49.30;100957.94;5076722;28;1170;-33
2023/09/19 10:28:21;;;;;;;;;;;;;;;21.80;49.90;100952.63;5077095;28;1023;-34
2023/09/19 10:30:50;;;;;;;;;;;;;;;21.66;50.36;100952.03;5063907;28;1058;-33
2023/09/19 10:33:17;;;;;;;;;;;;;;;21.82;50.37;100948.81;5064075;28;1039;-32
2023/09/19 10:35:43;;;;;;;;;;;;;;;21.70;50.97;100956.13;5070417;28;1071;-32
2023/09/19 10:38:10;;;;;;;;;;;;;;;21.74;50.89;100956.66;5069388;28;1046;-29
2023/09/19 10:40:36;;;;;;;;;;;;;;;24.61;45.79;100954.97;5076016;28;1059;-33
2023/09/19 10:43:05;;;;;;;;;;;;;;;26.49;41.51;100959.25;5058941;28;1906;-31
2023/09/19 10:45:31;;;;;;;;;;;;;;;23.55;46.87;100954.91;5076746;28;1150;-34
2023/09/19 10:47:57;;;;;;;;;;;;;;;22.41;49.24;100947.00;5076060;28;1042;-33
2023/09/19 10:50:23;;;;;;;;;;;;;;;22.05;50.05;100942.31;5076176;28;1122;-32
2023/09/19 10:52:50;;;;;;;;;;;;;;;21.78;50.98;100942.06;5049786;28;1113;-31
2023/09/19 10:55:17;;;;;;;;;;;;;;;21.71;51.21;100932.84;5069781;28;1003;-29
2023/09/19 10:57:44;;;;;;;;;;;;;;;24.68;45.40;100933.66;5069873;28;1051;-30
2023/09/19 11:00:27;;;;;;;;;;;;;;;26.74;40.79;100932.97;5076591;28;1150;-35
2023/09/19 11:03:11;;;;;;;;;;;;;;;23.14;47.58;100929.28;5060772;28;1910;-34
2023/09/19 11:05:40;;;;;;;;;;;;;;;21.96;50.41;100925.25;5074447;28;1058;-30
2023/09/19 11:08:09;;;;;;;;;;;;;;;22.86;48.85;100923.97;5058879;28;1468;-31
2023/09/19 11:10:46;;;;;;;;;;;;;;;26.34;40.21;100935.66;5063177;28;1051;-34
2023/09/19 11:13:30;;;;;;;;;;;;;;;27.56;37.21;100927.25;5064089;28;1023;-32
2023/09/19 11:15:58;;;;;;;;;;;;;;;27.84;36.74;100923.16;5059851;28;1174;-34
2023/09/19 11:18:43;;;;;;;;;;;;;;;28.52;35.17;100916.03;5061728;28;857;-34
2023/09/19 11:21:44;;;;;;;;;;;;;;;28.85;34.61;100919.13;5056269;28;1902;-32
2023/09/19 11:24:17;;;;;;;;;;;;;;;29.16;33.77;100914.47;4994151;28;1368;-32
2023/09/19 11:26:47;;;;;;;;;;;;;;;29.49;33.21;100913.13;5059021;28;1127;-32
2023/09/19 11:29:25;;;;;;;;;;;;;;;29.63;32.74;100919.50;5076028;28;1187;-32
2023/09/19 11:31:51;;;;;;;;;;;;;;;29.87;32.90;100914.69;5062118;28;1066;-33
2023/09/19 11:34:35;;;;;;;;;;;;;;;29.90;32.50;100918.88;5063706;28;1055;-34
2023/09/19 11:37:04;;;;;;;;;;;;;;;29.78;32.86;100919.41;5062601;28;1074;-33
2023/09/19 11:39:29;;;;;;;;;;;;;;;29.84;32.62;100917.81;5065643;28;1145;-31
2023/09/19 11:41:57;;;;;;;;;;;;;;;29.75;32.02;100919.81;5065681;28;1971;-33
2023/09/19 11:44:26;;;;;;;;;;;;;;;29.85;32.40;100914.03;5076290;28;1221;-34
2023/09/19 11:46:51;;;;;;;;;;;;;;;29.85;32.42;100910.50;5075901;28;1083;-29
2023/09/19 11:49:23;;;;;;;;;;;;;;;29.75;32.83;100910.84;5075821;28;1113;-33
2023/09/19 11:51:51;;;;;;;;;;;;;;;29.90;32.76;100906.16;5070802;28;1114;-33
2023/09/19 11:54:21;;;;;;;;;;;;;;;29.91;32.67;100912.44;5067776;28;887;-29
2023/09/19 11:56:56;;;;;;;;;;;;;;;29.07;35.05;100899.41;5056409;28;1046;-33
2023/09/19 11:59:24;;;;;;;;;;;;;;;24.49;44.04;100892.53;5069397;28;1028;-32
2023/09/19 12:01:50;;;;;;;;;;;;;;;23.75;45.93;100885.75;5071891;28;1906;-33
2023/09/19 12:04:16;;;;;;;;;;;;;;;23.35;46.71;100883.38;5059859;28;1023;-32
2023/09/19 12:06:44;;;;;;;;;;;;;;;23.10;47.23;100882.31;5074087;28;887;-32
2023/09/19 12:09:16;;;;;;;;;;;;;;;22.82;48.18;100883.19;5079514;28;1194;-30
2023/09/19 12:11:44;;;;;;;;;;;;;;;22.69;48.42;100877.34;5071575;28;1055;-31
2023/09/19 12:14:09;;;;;;;;;;;;;;;22.66;48.62;100873.13;5059391;28;1194;-31
2023/09/19 12:16:36;;;;;;;;;;;;;;;24.75;46.12;100886.28;5067699;28;1032;-34
2023/09/19 12:19:17;;;;;;;;;;;;;;;27.06;39.17;100880.91;5061372;28;916;-34
2023/09/19 12:21:43;;;;;;;;;;;;;;;28.02;37.15;100886.81;5079331;28;1910;-30
2023/09/19 12:24:13;;;;;;;;;;;;;;;24.03;44.54;100882.91;5075083;28;1066;-31
2023/09/19 12:26:41;;;;;;;;;;;;;;;22.99;47.67;100869.94;5059279;28;1063;-30
2023/09/19 12:29:17;;;;;;;;;;;;;;;22.55;48.62;100871.47;5077565;28;1146;-29
2023/09/19 12:31:53;;;;;;;;;;;;;;;22.46;49.05;100875.03;5079358;28;1248;-33
2023/09/19 12:34:19;;;;;;;;;;;;;;;22.25;49.58;100874.25;5066603;28;1015;-32
2023/09/19 12:36:45;;;;;;;;;;;;;;;22.06;50.57;100869.81;5065195;28;1137;-35
2023/09/19 12:39:11;;;;;;;;;;;;;;;25.39;43.58;100870.59;5041202;28;1107;-36
2023/09/19 12:41:37;;;;;;;;;;;;;;;27.02;43.20;100869.59;5061649;28;1906;-31
2023/09/19 12:44:08;;;;;;;;;;;;;;;28.20;36.67;100867.50;5041376;28;1071;-33
2023/09/19 12:46:35;;;;;;;;;;;;;;;27.89;38.56;100873.94;5054824;28;1021;-30
2023/09/19 12:49:20;;;;;;;;;;;;;;;23.76;46.25;100857.88;5066970;28;1031;-32
2023/09/19 12:51:48;;;;;;;;;;;;;;;22.72;48.53;100855.59;5078816;28;1066;-30
2023/09/19 12:54:16;;;;;;;;;;;;;;;22.36;49.35;100845.59;5075384;28;1101;-32